createdAt,value
2022-08-17T00:00:42.844Z,72.50
2022-08-17T00:03:24.782Z,72.40
2022-08-17T00:06:00.303Z,72.40
2022-08-17T00:08:33.286Z,72.50
2022-08-17T00:11:05.377Z,72.80
2022-08-17T00:13:40.889Z,72.80
2022-08-17T00:16:18.351Z,73.00
2022-08-17T00:19:04.164Z,73.00
2022-08-17T00:22:29.498Z,73.20
2022-08-17T00:24:29.537Z,73.20
2022-08-17T00:27:00.077Z,73.40
2022-08-17T00:29:27.892Z,73.40
2022-08-17T00:33:12.285Z,73.70
2022-08-17T00:34:51.694Z,73.60
2022-08-17T00:37:19.344Z,73.60
2022-08-17T00:39:59.730Z,73.70
2022-08-17T00:42:32.975Z,73.80
2022-08-17T00:45:01.831Z,73.80
2022-08-17T00:47:38.216Z,74.00
2022-08-17T00:50:13.773Z,74.00
2022-08-17T00:52:50.892Z,74.10
2022-08-17T00:55:21.401Z,74.30
2022-08-17T00:57:55.500Z,74.30
2022-08-17T01:00:30.636Z,74.30
2022-08-17T01:03:06.796Z,74.50
2022-08-17T01:05:42.281Z,74.50
2022-08-17T01:08:17.544Z,74.70
2022-08-17T01:11:00.582Z,74.80
2022-08-17T01:13:40.382Z,74.80
2022-08-17T01:16:24.561Z,74.90
2022-08-17T01:19:06.906Z,74.90
2022-08-17T01:21:49.986Z,75.00
2022-08-17T01:24:22.708Z,75.00
2022-08-17T01:26:57.710Z,74.90
2022-08-17T01:29:31.240Z,74.90
2022-08-17T01:32:05.854Z,74.70
2022-08-17T01:34:42.786Z,74.70
2022-08-17T01:40:18.288Z,74.30
2022-08-17T01:42:55.123Z,73.80
2022-08-17T01:45:32.168Z,73.50
2022-08-17T01:48:01.122Z,73.30
2022-08-17T01:50:41.222Z,73.10
2022-08-17T01:53:25.420Z,73.00
2022-08-17T01:56:12.763Z,73.00
2022-08-17T01:58:41.438Z,72.80
2022-08-17T02:01:15.992Z,72.80
2022-08-17T02:03:56.304Z,72.90
2022-08-17T02:06:54.397Z,73.00
2022-08-17T02:09:26.338Z,73.10
2022-08-17T02:12:38.042Z,73.10
2022-08-17T02:14:51.171Z,73.00
2022-08-17T02:17:47.692Z,73.00
2022-08-17T02:20:42.125Z,72.90
2022-08-17T02:23:14.520Z,72.80
2022-08-17T02:25:43.905Z,72.80
2022-08-17T02:28:13.756Z,72.70
2022-08-17T02:31:01.255Z,72.70
2022-08-17T02:33:42.568Z,72.70
2022-08-17T02:36:17.650Z,72.90
2022-08-17T02:38:46.446Z,73.00
2022-08-17T02:41:16.725Z,73.20
2022-08-17T02:43:44.299Z,73.20
2022-08-17T02:46:15.365Z,73.40
2022-08-17T02:48:50.358Z,73.30
2022-08-17T02:51:18.540Z,73.20
2022-08-17T02:53:49.597Z,73.20
2022-08-17T02:56:17.446Z,72.80
2022-08-17T02:58:46.442Z,72.80
2022-08-17T03:01:14.613Z,72.80
2022-08-17T03:03:42.590Z,72.70
2022-08-17T03:06:10.040Z,72.60
2022-08-17T03:08:40.954Z,72.50
2022-08-17T03:11:09.421Z,72.20
2022-08-17T03:13:47.689Z,71.80
2022-08-17T03:16:15.803Z,71.20
2022-08-17T03:18:43.674Z,71.40
2022-08-17T03:21:13.958Z,70.90
2022-08-17T03:23:44.722Z,70.50
2022-08-17T03:26:38.484Z,70.20
2022-08-17T03:29:08.938Z,69.90
2022-08-17T03:31:37.082Z,69.80
2022-08-17T03:34:08.457Z,69.80
2022-08-17T03:36:36.294Z,69.80
2022-08-17T03:39:10.446Z,69.70
2022-08-17T03:41:49.027Z,69.70
2022-08-17T03:44:19.451Z,69.60
2022-08-17T03:47:09.814Z,69.70
2022-08-17T03:49:56.087Z,69.70
2022-08-17T03:52:42.981Z,69.90
2022-08-17T03:55:36.386Z,70.10
2022-08-17T03:58:04.719Z,70.10
2022-08-17T04:00:36.683Z,70.00
2022-08-17T04:03:13.114Z,69.80
2022-08-17T04:05:41.688Z,70.00
2022-08-17T04:08:09.904Z,69.90
2022-08-17T04:10:38.367Z,70.20
2022-08-17T04:13:13.226Z,70.20
2022-08-17T04:15:44.522Z,70.40
2022-08-17T04:18:14.349Z,70.50
2022-08-17T04:20:42.802Z,70.40
2022-08-17T04:23:13.047Z,70.60
2022-08-17T04:25:48.331Z,70.80
2022-08-17T04:28:24.244Z,71.00
2022-08-17T04:30:58.917Z,71.20
2022-08-17T04:33:34.908Z,71.20
2022-08-17T04:36:14.044Z,71.20
2022-08-17T04:38:48.556Z,71.10
2022-08-17T04:41:35.902Z,71.20
2022-08-17T04:44:04.836Z,71.20
2022-08-17T04:46:44.736Z,71.40
2022-08-17T04:49:15.712Z,71.40
2022-08-17T04:54:32.485Z,71.20
2022-08-17T04:57:00.264Z,71.20
2022-08-17T04:59:32.667Z,71.30
2022-08-17T05:02:04.589Z,71.40
2022-08-17T05:04:34.122Z,71.20
2022-08-17T05:07:05.277Z,71.20
2022-08-17T05:09:43.006Z,70.80
2022-08-17T05:12:22.436Z,71.10
2022-08-17T05:14:52.125Z,71.50
2022-08-17T05:17:24.868Z,71.90
2022-08-17T05:19:53.248Z,72.10
2022-08-17T05:22:32.092Z,72.30
2022-08-17T05:25:00.232Z,72.70
2022-08-17T05:27:36.109Z,72.60
2022-08-17T05:30:06.887Z,72.30
2022-08-17T05:32:41.883Z,72.30
2022-08-17T05:35:11.928Z,72.40
2022-08-17T05:37:40.279Z,72.40
2022-08-17T05:40:13.505Z,72.50
2022-08-17T05:43:10.590Z,72.60
2022-08-17T05:45:56.432Z,72.50
2022-08-17T05:48:36.768Z,72.30
2022-08-17T05:51:15.956Z,72.90
2022-08-17T05:53:56.428Z,73.10
2022-08-17T05:56:46.910Z,73.10
2022-08-17T06:02:47.660Z,72.90
2022-08-17T06:06:05.766Z,72.70
2022-08-17T06:08:59.614Z,72.70
2022-08-17T06:11:55.426Z,72.80
2022-08-17T06:14:50.260Z,72.80
2022-08-17T06:17:22.987Z,72.60
2022-08-17T06:19:58.479Z,72.40
2022-08-17T06:22:50.527Z,72.50
2022-08-17T06:25:41.878Z,72.90
2022-08-17T06:31:54.010Z,73.40
2022-08-17T06:34:35.341Z,73.50
2022-08-17T06:37:25.537Z,73.50
2022-08-17T06:40:22.008Z,73.50
2022-08-17T06:43:15.836Z,73.20
2022-08-17T06:45:52.810Z,73.20
2022-08-17T06:48:29.641Z,73.30
2022-08-17T06:51:31.850Z,73.00
2022-08-17T06:54:10.225Z,72.80
2022-08-17T06:57:08.244Z,72.00
2022-08-17T07:00:18.152Z,71.40
2022-08-17T07:04:39.666Z,71.30
2022-08-17T07:07:04.472Z,71.20
2022-08-17T07:14:06.154Z,71.20
2022-08-17T07:16:50.725Z,71.00
2022-08-17T07:19:49.431Z,70.50
2022-08-17T07:26:52.663Z,69.60
2022-08-17T07:30:11.954Z,68.80
2022-08-17T07:33:25.798Z,67.80
2022-08-17T07:36:45.240Z,65.50
2022-08-17T07:46:33.106Z,61.80
2022-08-17T07:55:50.913Z,59.40
2022-08-17T07:58:21.537Z,59.60
2022-08-17T08:01:58.475Z,59.70
2022-08-17T08:05:00.710Z,59.70
2022-08-17T08:07:46.433Z,59.30
2022-08-17T08:10:47.551Z,59.60
2022-08-17T08:13:28.418Z,59.10
2022-08-17T08:16:29.871Z,59.10
2022-08-17T08:22:38.345Z,59.00
2022-08-17T08:25:45.000Z,59.20
2022-08-17T08:28:52.020Z,58.30
2022-08-17T08:31:58.911Z,58.00
2022-08-17T08:34:47.391Z,58.80
2022-08-17T08:38:07.877Z,59.20
2022-08-17T08:41:23.121Z,58.40
2022-08-17T08:44:07.779Z,57.70
2022-08-17T08:51:01.267Z,56.70
2022-08-17T08:54:15.454Z,54.90
2022-08-17T08:57:22.376Z,54.00
2022-08-17T09:04:24.164Z,48.60
2022-08-17T09:07:02.125Z,46.20
2022-08-17T09:09:53.370Z,44.30
2022-08-17T09:12:57.677Z,44.00
2022-08-17T09:15:49.316Z,43.00
2022-08-17T09:22:28.226Z,40.40
2022-08-17T09:25:03.774Z,39.50
2022-08-17T09:28:10.274Z,40.00
2022-08-17T09:30:47.385Z,39.10
2022-08-17T09:33:18.107Z,39.30
2022-08-17T09:36:07.683Z,40.30
2022-08-17T09:38:58.129Z,39.90
2022-08-17T09:42:12.819Z,40.10
2022-08-17T09:45:25.721Z,40.80
2022-08-17T09:51:04.727Z,42.70
2022-08-17T09:57:28.032Z,43.20
2022-08-17T10:00:41.757Z,42.50
2022-08-17T10:03:42.569Z,40.60
2022-08-17T10:06:40.359Z,40.20
2022-08-17T10:09:43.641Z,40.40
2022-08-17T10:12:20.660Z,40.20
2022-08-17T10:15:17.788Z,39.90
2022-08-17T10:17:57.746Z,39.40
2022-08-17T10:20:44.734Z,40.20
2022-08-17T10:23:51.496Z,40.70
2022-08-17T10:26:46.192Z,41.50
2022-08-17T10:29:47.503Z,42.10
2022-08-17T10:32:39.234Z,42.70
2022-08-17T10:35:23.672Z,43.00
2022-08-17T10:38:42.493Z,43.20
2022-08-17T10:44:53.453Z,42.60
2022-08-17T10:47:27.026Z,43.00
2022-08-17T10:49:57.552Z,42.70
2022-08-17T10:52:36.281Z,41.50
2022-08-17T10:55:26.783Z,40.50
2022-08-17T10:58:21.785Z,41.00
2022-08-17T11:00:57.466Z,41.70
2022-08-17T11:03:28.960Z,41.80
2022-08-17T11:06:24.274Z,42.20
2022-08-17T11:09:20.283Z,42.70
2022-08-17T11:12:10.153Z,42.90
2022-08-17T11:15:06.108Z,42.50
2022-08-17T11:18:22.762Z,42.30
2022-08-17T11:21:20.934Z,41.80
2022-08-17T11:24:27.556Z,42.10
2022-08-17T11:27:26.004Z,41.80
2022-08-17T11:30:21.238Z,42.10
2022-08-17T11:33:01.718Z,42.10
2022-08-17T11:35:59.317Z,42.20
2022-08-17T11:38:58.118Z,41.90
2022-08-17T11:41:38.725Z,41.70
2022-08-17T11:47:34.654Z,41.00
2022-08-17T11:50:33.914Z,40.90
2022-08-17T11:53:16.206Z,41.10
2022-08-17T11:56:19.819Z,41.70
2022-08-17T11:58:50.597Z,41.30
2022-08-17T12:01:28.668Z,41.10
2022-08-17T12:04:35.994Z,41.50
2022-08-17T12:07:27.516Z,40.80
2022-08-17T12:10:01.404Z,40.70
2022-08-17T12:12:36.206Z,40.40
2022-08-17T12:15:18.620Z,40.60
2022-08-17T12:19:02.326Z,40.70
2022-08-17T12:21:48.287Z,40.30
2022-08-17T12:24:51.991Z,39.90
2022-08-17T12:28:04.455Z,40.60
2022-08-17T12:30:40.878Z,40.70
2022-08-17T12:33:25.236Z,40.60
2022-08-17T12:36:16.698Z,40.80
2022-08-17T12:39:13.911Z,41.00
2022-08-17T12:41:50.425Z,41.60
2022-08-17T12:44:53.192Z,41.40
2022-08-17T12:47:40.468Z,41.70
2022-08-17T12:50:28.619Z,41.90
2022-08-17T12:53:10.078Z,42.30
2022-08-17T12:55:39.076Z,42.00
2022-08-17T12:58:15.333Z,42.40
2022-08-17T13:01:16.521Z,42.40
2022-08-17T13:03:58.411Z,42.90
2022-08-17T13:06:59.597Z,42.60
2022-08-17T13:09:35.771Z,42.30
2022-08-17T13:12:08.880Z,42.30
2022-08-17T13:14:49.231Z,41.90
2022-08-17T13:17:34.773Z,42.20
2022-08-17T13:20:20.884Z,42.20
2022-08-17T13:22:57.886Z,42.10
2022-08-17T13:25:30.367Z,41.90
2022-08-17T13:28:01.010Z,41.70
2022-08-17T13:30:32.786Z,41.60
2022-08-17T13:33:21.492Z,42.20
2022-08-17T13:36:09.444Z,42.80
2022-08-17T13:38:52.173Z,42.80
2022-08-17T13:41:52.697Z,42.50
2022-08-17T13:44:42.165Z,42.10
2022-08-17T13:47:20.488Z,42.30
2022-08-17T13:49:51.571Z,42.60
2022-08-17T13:52:39.184Z,42.60
2022-08-17T13:55:22.576Z,42.70
2022-08-17T13:58:06.950Z,42.30
2022-08-17T14:00:36.965Z,42.40
2022-08-17T14:03:15.615Z,41.60
2022-08-17T14:05:43.058Z,41.30
2022-08-17T14:08:14.216Z,41.00
2022-08-17T14:10:45.960Z,41.20
2022-08-17T14:13:16.984Z,40.70
2022-08-17T14:15:55.364Z,40.40
2022-08-17T14:18:34.266Z,40.30
2022-08-17T14:21:16.083Z,40.40
2022-08-17T14:23:54.644Z,40.80
2022-08-17T14:26:31.226Z,40.00
2022-08-17T14:29:01.298Z,40.50
2022-08-17T14:31:36.839Z,40.40
2022-08-17T14:34:11.455Z,40.60
2022-08-17T14:36:48.247Z,40.70
2022-08-17T14:39:23.859Z,41.00
2022-08-17T14:41:59.339Z,41.10
2022-08-17T14:44:30.293Z,40.90
2022-08-17T14:46:57.791Z,40.80
2022-08-17T14:49:26.293Z,40.80
2022-08-17T14:51:56.753Z,41.20
2022-08-17T14:54:32.777Z,41.30
2022-08-17T14:57:22.193Z,41.20
2022-08-17T14:59:59.509Z,40.70
2022-08-17T15:02:31.264Z,40.70
2022-08-17T15:05:00.786Z,40.60
2022-08-17T15:07:30.397Z,40.50
2022-08-17T15:10:01.668Z,40.70
2022-08-17T15:12:57.116Z,40.90
2022-08-17T15:15:27.949Z,40.80
2022-08-17T15:17:57.921Z,40.80
2022-08-17T15:20:28.177Z,40.90
2022-08-17T15:23:05.345Z,40.70
2022-08-17T15:25:33.471Z,40.50
2022-08-17T15:28:04.423Z,41.00
2022-08-17T15:30:45.507Z,40.60
2022-08-17T15:33:16.246Z,40.80
2022-08-17T15:35:53.463Z,41.10
2022-08-17T15:38:24.069Z,40.60
2022-08-17T15:40:58.725Z,40.60
2022-08-17T15:43:31.243Z,40.00
2022-08-17T15:46:06.556Z,40.20
2022-08-17T15:48:42.460Z,40.30
2022-08-17T15:51:22.700Z,40.60
2022-08-17T15:54:04.439Z,40.80
2022-08-17T15:56:48.883Z,41.30
2022-08-17T15:59:16.305Z,41.20
2022-08-17T16:03:15.345Z,41.20
2022-08-17T16:04:31.895Z,41.30
2022-08-17T16:07:01.369Z,41.40
2022-08-17T16:09:31.065Z,41.40
2022-08-17T16:12:13.943Z,41.50
2022-08-17T16:14:43.504Z,41.70
2022-08-17T16:17:38.935Z,41.80
2022-08-17T16:20:02.770Z,42.10
2022-08-17T16:22:57.227Z,42.60
2022-08-17T16:25:50.357Z,42.30
2022-08-17T16:28:35.797Z,42.30
2022-08-17T16:31:08.124Z,42.50
2022-08-17T16:33:40.168Z,42.80
2022-08-17T16:36:11.285Z,42.90
2022-08-17T16:38:38.985Z,43.30
2022-08-17T16:41:07.516Z,43.30
2022-08-17T16:43:35.255Z,43.60
2022-08-17T16:46:10.160Z,43.80
2022-08-17T16:48:40.332Z,44.00
2022-08-17T16:51:10.773Z,44.10
2022-08-17T16:53:38.190Z,44.40
2022-08-17T16:56:09.229Z,44.40
2022-08-17T16:58:37.851Z,44.60
2022-08-17T17:01:13.062Z,44.90
2022-08-17T17:03:47.691Z,45.10
2022-08-17T17:06:32.410Z,45.30
2022-08-17T17:09:12.202Z,45.40
2022-08-17T17:11:44.695Z,45.80
2022-08-17T17:14:28.024Z,46.00
2022-08-17T17:17:13.552Z,46.30
2022-08-17T17:20:07.156Z,46.40
2022-08-17T17:23:13.290Z,46.50
2022-08-17T17:25:52.199Z,46.70
2022-08-17T17:28:28.000Z,46.70
2022-08-17T17:31:07.565Z,46.60
2022-08-17T17:33:49.779Z,46.70
2022-08-17T17:36:48.931Z,47.00
2022-08-17T17:39:22.482Z,47.10
2022-08-17T17:42:02.733Z,47.20
2022-08-17T17:44:36.094Z,47.50
2022-08-17T17:47:17.876Z,47.60
2022-08-17T17:49:53.974Z,47.70
2022-08-17T17:52:51.365Z,47.80
2022-08-17T17:55:33.071Z,48.10
2022-08-17T17:58:48.583Z,48.30
2022-08-17T18:01:46.370Z,48.40
2022-08-17T18:04:23.515Z,48.60
2022-08-17T18:07:22.065Z,48.90
2022-08-17T18:10:30.531Z,49.30
2022-08-17T18:13:11.814Z,49.40
2022-08-17T18:15:52.210Z,49.70
2022-08-17T18:18:52.731Z,49.70
2022-08-17T18:21:30.990Z,50.00
2022-08-17T18:24:02.171Z,50.30
2022-08-17T18:26:47.608Z,50.50
2022-08-17T18:29:41.222Z,50.40
2022-08-17T18:32:33.530Z,50.50
2022-08-17T18:37:56.764Z,50.80
2022-08-17T18:40:29.636Z,51.00
2022-08-17T18:43:03.509Z,51.20
2022-08-17T18:45:33.987Z,51.40
2022-08-17T18:48:07.595Z,51.40
2022-08-17T18:50:42.110Z,52.00
2022-08-17T18:53:26.479Z,51.90
2022-08-17T18:56:21.985Z,52.10
2022-08-17T18:59:06.655Z,52.00
2022-08-17T19:02:39.107Z,52.20
2022-08-17T19:05:33.528Z,52.60
2022-08-17T19:08:28.778Z,53.00
2022-08-17T19:11:47.754Z,53.40
2022-08-17T19:14:16.974Z,53.80
2022-08-17T19:16:53.575Z,54.30
2022-08-17T19:19:52.781Z,54.30
2022-08-17T19:22:44.491Z,54.50
2022-08-17T19:25:21.901Z,54.70
2022-08-17T19:28:00.724Z,54.70
2022-08-17T19:30:31.083Z,54.90
2022-08-17T19:33:01.635Z,55.20
2022-08-17T19:35:56.180Z,55.20
2022-08-17T19:38:38.430Z,55.50
2022-08-17T19:41:32.810Z,55.50
2022-08-17T19:44:28.157Z,55.80
2022-08-17T19:47:51.025Z,56.10
2022-08-17T19:50:22.418Z,56.20
2022-08-17T19:52:56.871Z,56.80
2022-08-17T19:55:45.400Z,56.90
2022-08-17T19:58:31.102Z,57.20
2022-08-17T20:00:58.793Z,57.40
2022-08-17T20:03:53.995Z,57.50
2022-08-17T20:06:25.043Z,57.40
2022-08-17T20:08:59.875Z,57.60
2022-08-17T20:12:08.359Z,58.10
2022-08-17T20:14:53.291Z,58.30
2022-08-17T20:17:29.519Z,58.20
2022-08-17T20:20:19.780Z,58.70
2022-08-17T20:23:23.000Z,59.00
2022-08-17T20:26:19.547Z,59.40
2022-08-17T20:29:11.285Z,59.80
2022-08-17T20:32:13.201Z,59.90
2022-08-17T20:34:43.352Z,60.00
2022-08-17T20:37:21.761Z,60.60
2022-08-17T20:39:56.593Z,60.60
2022-08-17T20:42:24.496Z,60.70
2022-08-17T20:45:02.285Z,61.30
2022-08-17T20:48:00.800Z,61.50
2022-08-17T20:50:40.144Z,61.80
2022-08-17T20:53:15.032Z,62.00
2022-08-17T20:55:52.312Z,62.20
2022-08-17T20:58:30.816Z,62.50
2022-08-17T21:01:01.731Z,62.70
2022-08-17T21:03:40.018Z,62.60
2022-08-17T21:06:22.126Z,63.00
2022-08-17T21:08:54.700Z,63.40
2022-08-17T21:11:57.235Z,63.20
2022-08-17T21:14:26.065Z,63.50
2022-08-17T21:17:29.849Z,63.60
2022-08-17T21:20:12.075Z,63.70
2022-08-17T21:23:01.208Z,63.70
2022-08-17T21:25:55.296Z,63.90
2022-08-17T21:29:29.975Z,63.80
2022-08-17T21:32:06.790Z,63.90
2022-08-17T21:34:45.289Z,64.30
2022-08-17T21:37:29.966Z,64.30
2022-08-17T21:40:11.935Z,64.30
2022-08-17T21:42:46.961Z,64.10
2022-08-17T21:45:27.582Z,64.30
2022-08-17T21:48:13.756Z,64.40
2022-08-17T21:50:44.455Z,64.40
2022-08-17T21:53:15.667Z,64.60
2022-08-17T21:55:43.081Z,64.90
2022-08-17T21:58:30.157Z,65.20
2022-08-17T22:01:15.726Z,65.20
2022-08-17T22:03:45.076Z,65.30
2022-08-17T22:06:39.851Z,65.40
2022-08-17T22:09:18.125Z,65.70
2022-08-17T22:11:59.882Z,66.00
2022-08-17T22:14:52.533Z,66.20
2022-08-17T22:17:30.523Z,66.30
2022-08-17T22:20:14.728Z,66.20
2022-08-17T22:23:20.204Z,66.50
2022-08-17T22:26:09.593Z,67.00
2022-08-17T22:28:46.751Z,67.40
2022-08-17T22:31:18.331Z,67.50
2022-08-17T22:34:05.089Z,67.60
2022-08-17T22:36:33.714Z,67.80
2022-08-17T22:39:23.882Z,68.10
2022-08-17T22:41:54.662Z,68.00
2022-08-17T22:44:37.820Z,68.40
2022-08-17T22:47:24.598Z,68.70
2022-08-17T22:49:58.940Z,68.70
2022-08-17T22:52:33.377Z,68.80
2022-08-17T22:55:27.406Z,69.20
2022-08-17T22:58:19.972Z,69.40
2022-08-17T23:00:49.375Z,69.50
2022-08-17T23:03:28.875Z,69.60
2022-08-17T23:06:08.096Z,69.90
2022-08-17T23:08:48.597Z,70.00
2022-08-17T23:11:16.631Z,70.10
2022-08-17T23:13:47.781Z,70.40
2022-08-17T23:16:17.111Z,70.60
2022-08-17T23:18:50.248Z,70.50
2022-08-17T23:21:25.676Z,70.70
2022-08-17T23:23:59.147Z,71.00
2022-08-17T23:26:28.261Z,71.00
2022-08-17T23:28:55.600Z,71.10
2022-08-17T23:31:25.942Z,71.10
2022-08-17T23:33:53.307Z,71.40
2022-08-17T23:36:21.149Z,71.30
2022-08-17T23:38:48.860Z,71.40
2022-08-17T23:41:23.938Z,71.50
2022-08-17T23:44:07.711Z,71.70
2022-08-17T23:46:38.652Z,71.60
2022-08-17T23:49:06.793Z,71.90
2022-08-17T23:51:45.282Z,72.10
2022-08-17T23:54:43.720Z,72.10
2022-08-17T23:57:16.327Z,72.20
2022-08-17T23:59:47.280Z,72.30
